sensor_id;sensor_type;location;lat;lon;timestamp;temperature;humidity
6879;DHT22;3478;51.462;7.338;2023-07-29T00:01:27;19.20;99.90
6879;DHT22;3478;51.462;7.338;2023-07-29T00:06:28;19.20;99.90
6879;DHT22;3478;51.462;7.338;2023-07-29T00:11:32;19.20;99.90
6879;DHT22;3478;51.462;7.338;2023-07-29T00:16:34;19.10;99.90
6879;DHT22;3478;51.462;7.338;2023-07-29T00:21:36;19.20;99.90
6879;DHT22;3478;51.462;7.338;2023-07-29T00:26:40;19.10;99.90
6879;DHT22;3478;51.462;7.338;2023-07-29T00:31:41;19.10;99.90
6879;DHT22;3478;51.462;7.338;2023-07-29T00:36:43;19.10;99.90
6879;DHT22;3478;51.462;7.338;2023-07-29T00:41:46;19.00;99.90
6879;DHT22;3478;51.462;7.338;2023-07-29T00:46:50;18.90;99.90
6879;DHT22;3478;51.462;7.338;2023-07-29T00:51:52;18.90;99.90
6879;DHT22;3478;51.462;7.338;2023-07-29T00:56:55;18.90;99.90
6879;DHT22;3478;51.462;7.338;2023-07-29T01:01:57;18.80;99.90
6879;DHT22;3478;51.462;7.338;2023-07-29T01:07:10;18.90;99.90
6879;DHT22;3478;51.462;7.338;2023-07-29T01:12:20;18.90;99.90
6879;DHT22;3478;51.462;7.338;2023-07-29T01:17:26;18.90;99.90
6879;DHT22;3478;51.462;7.338;2023-07-29T01:22:32;18.90;99.90
6879;DHT22;3478;51.462;7.338;2023-07-29T01:27:36;18.80;99.90
6879;DHT22;3478;51.462;7.338;2023-07-29T01:32:41;18.80;99.90
6879;DHT22;3478;51.462;7.338;2023-07-29T01:37:48;18.70;99.90
6879;DHT22;3478;51.462;7.338;2023-07-29T01:42:51;18.70;99.90
6879;DHT22;3478;51.462;7.338;2023-07-29T01:47:53;18.70;99.90
6879;DHT22;3478;51.462;7.338;2023-07-29T01:52:55;18.70;99.90
6879;DHT22;3478;51.462;7.338;2023-07-29T01:57:58;18.70;99.90
6879;DHT22;3478;51.462;7.338;2023-07-29T02:03:00;18.60;99.90
6879;DHT22;3478;51.462;7.338;2023-07-29T02:08:02;18.60;99.90
6879;DHT22;3478;51.462;7.338;2023-07-29T02:13:05;18.60;99.90
6879;DHT22;3478;51.462;7.338;2023-07-29T02:18:07;18.50;99.90
6879;DHT22;3478;51.462;7.338;2023-07-29T02:23:09;18.50;99.90
6879;DHT22;3478;51.462;7.338;2023-07-29T02:28:12;18.50;99.90
6879;DHT22;3478;51.462;7.338;2023-07-29T02:33:14;18.60;99.90
6879;DHT22;3478;51.462;7.338;2023-07-29T02:38:16;18.50;99.90
6879;DHT22;3478;51.462;7.338;2023-07-29T02:43:19;18.50;99.90
6879;DHT22;3478;51.462;7.338;2023-07-29T02:48:20;18.60;99.90
6879;DHT22;3478;51.462;7.338;2023-07-29T02:53:23;18.60;99.90
6879;DHT22;3478;51.462;7.338;2023-07-29T02:58:26;18.60;99.90
6879;DHT22;3478;51.462;7.338;2023-07-29T03:03:28;18.60;99.90
6879;DHT22;3478;51.462;7.338;2023-07-29T03:08:30;18.50;99.90
6879;DHT22;3478;51.462;7.338;2023-07-29T03:13:33;18.50;99.90
6879;DHT22;3478;51.462;7.338;2023-07-29T03:18:35;18.50;99.90
6879;DHT22;3478;51.462;7.338;2023-07-29T03:23:38;18.50;99.90
6879;DHT22;3478;51.462;7.338;2023-07-29T03:28:42;18.60;99.90
6879;DHT22;3478;51.462;7.338;2023-07-29T03:33:44;18.60;99.90
6879;DHT22;3478;51.462;7.338;2023-07-29T03:38:46;18.70;99.90
6879;DHT22;3478;51.462;7.338;2023-07-29T03:43:49;18.70;99.90
6879;DHT22;3478;51.462;7.338;2023-07-29T03:48:51;18.70;99.90
6879;DHT22;3478;51.462;7.338;2023-07-29T03:53:53;18.70;99.90
6879;DHT22;3478;51.462;7.338;2023-07-29T03:59:02;18.70;99.90
6879;DHT22;3478;51.462;7.338;2023-07-29T04:04:04;18.70;99.90
6879;DHT22;3478;51.462;7.338;2023-07-29T04:09:06;18.70;99.90
6879;DHT22;3478;51.462;7.338;2023-07-29T04:14:09;18.70;99.90
6879;DHT22;3478;51.462;7.338;2023-07-29T04:19:11;18.70;99.90
6879;DHT22;3478;51.462;7.338;2023-07-29T04:24:13;18.70;99.90
6879;DHT22;3478;51.462;7.338;2023-07-29T04:29:16;18.80;99.90
6879;DHT22;3478;51.462;7.338;2023-07-29T04:34:18;18.80;99.90
6879;DHT22;3478;51.462;7.338;2023-07-29T04:39:21;18.80;99.90
6879;DHT22;3478;51.462;7.338;2023-07-29T04:44:24;18.80;99.90
6879;DHT22;3478;51.462;7.338;2023-07-29T04:49:26;18.80;99.90
6879;DHT22;3478;51.462;7.338;2023-07-29T04:54:27;18.80;99.90
6879;DHT22;3478;51.462;7.338;2023-07-29T04:59:31;18.90;99.90
6879;DHT22;3478;51.462;7.338;2023-07-29T05:04:33;18.90;99.90
6879;DHT22;3478;51.462;7.338;2023-07-29T05:09:34;18.80;99.90
6879;DHT22;3478;51.462;7.338;2023-07-29T05:14:38;18.80;99.90
6879;DHT22;3478;51.462;7.338;2023-07-29T05:19:39;18.80;99.90
6879;DHT22;3478;51.462;7.338;2023-07-29T05:24:41;18.70;99.90
6879;DHT22;3478;51.462;7.338;2023-07-29T05:29:44;18.70;99.90
6879;DHT22;3478;51.462;7.338;2023-07-29T05:34:46;18.60;99.90
6879;DHT22;3478;51.462;7.338;2023-07-29T05:39:48;18.80;99.90
6879;DHT22;3478;51.462;7.338;2023-07-29T05:44:51;18.80;99.90
6879;DHT22;3478;51.462;7.338;2023-07-29T05:49:53;18.90;99.90
6879;DHT22;3478;51.462;7.338;2023-07-29T05:54:55;19.00;99.90
6879;DHT22;3478;51.462;7.338;2023-07-29T05:59:58;19.00;99.90
6879;DHT22;3478;51.462;7.338;2023-07-29T06:05:00;19.00;99.90
6879;DHT22;3478;51.462;7.338;2023-07-29T06:10:04;18.90;99.90
6879;DHT22;3478;51.462;7.338;2023-07-29T06:15:08;19.00;99.90
6879;DHT22;3478;51.462;7.338;2023-07-29T06:20:10;18.90;99.90
6879;DHT22;3478;51.462;7.338;2023-07-29T06:25:12;18.80;99.90
6879;DHT22;3478;51.462;7.338;2023-07-29T06:30:15;18.70;99.90
6879;DHT22;3478;51.462;7.338;2023-07-29T06:35:17;18.50;99.90
6879;DHT22;3478;51.462;7.338;2023-07-29T06:40:19;18.50;99.90
6879;DHT22;3478;51.462;7.338;2023-07-29T06:45:22;18.50;99.90
6879;DHT22;3478;51.462;7.338;2023-07-29T06:50:24;18.40;99.90
6879;DHT22;3478;51.462;7.338;2023-07-29T06:55:26;18.20;99.90
6879;DHT22;3478;51.462;7.338;2023-07-29T07:00:29;18.40;99.90
6879;DHT22;3478;51.462;7.338;2023-07-29T07:05:31;18.40;99.90
6879;DHT22;3478;51.462;7.338;2023-07-29T07:10:33;18.30;99.90
6879;DHT22;3478;51.462;7.338;2023-07-29T07:15:36;18.30;99.90
6879;DHT22;3478;51.462;7.338;2023-07-29T07:20:38;18.30;99.90
6879;DHT22;3478;51.462;7.338;2023-07-29T07:25:40;18.30;99.90
6879;DHT22;3478;51.462;7.338;2023-07-29T07:30:44;18.40;99.90
6879;DHT22;3478;51.462;7.338;2023-07-29T07:35:46;18.50;99.90
6879;DHT22;3478;51.462;7.338;2023-07-29T07:40:52;18.70;99.90
6879;DHT22;3478;51.462;7.338;2023-07-29T07:45:59;18.70;99.90
6879;DHT22;3478;51.462;7.338;2023-07-29T07:51:10;18.90;99.90
6879;DHT22;3478;51.462;7.338;2023-07-29T07:56:12;18.80;99.90
6879;DHT22;3478;51.462;7.338;2023-07-29T08:01:15;18.80;99.90
6879;DHT22;3478;51.462;7.338;2023-07-29T08:06:17;19.00;99.90
6879;DHT22;3478;51.462;7.338;2023-07-29T08:11:19;19.30;99.90
6879;DHT22;3478;51.462;7.338;2023-07-29T08:16:22;19.40;99.90
6879;DHT22;3478;51.462;7.338;2023-07-29T08:21:24;19.40;99.90
6879;DHT22;3478;51.462;7.338;2023-07-29T08:26:26;19.40;99.90
6879;DHT22;3478;51.462;7.338;2023-07-29T08:31:29;19.40;99.90
6879;DHT22;3478;51.462;7.338;2023-07-29T08:36:34;19.60;99.90
6879;DHT22;3478;51.462;7.338;2023-07-29T08:41:40;19.70;99.90
6879;DHT22;3478;51.462;7.338;2023-07-29T08:46:44;19.70;99.90
6879;DHT22;3478;51.462;7.338;2023-07-29T08:51:47;19.70;99.90
6879;DHT22;3478;51.462;7.338;2023-07-29T08:56:50;19.90;99.90
6879;DHT22;3478;51.462;7.338;2023-07-29T09:01:54;20.20;99.90
6879;DHT22;3478;51.462;7.338;2023-07-29T09:06:59;19.90;99.90
6879;DHT22;3478;51.462;7.338;2023-07-29T09:12:00;20.20;99.90
6879;DHT22;3478;51.462;7.338;2023-07-29T09:17:07;20.50;99.90
6879;DHT22;3478;51.462;7.338;2023-07-29T09:22:17;20.70;99.90
6879;DHT22;3478;51.462;7.338;2023-07-29T09:27:26;20.80;99.90
6879;DHT22;3478;51.462;7.338;2023-07-29T09:32:29;20.80;99.90
6879;DHT22;3478;51.462;7.338;2023-07-29T09:37:32;21.00;99.90
6879;DHT22;3478;51.462;7.338;2023-07-29T09:42:34;21.40;99.90
6879;DHT22;3478;51.462;7.338;2023-07-29T09:47:37;21.30;99.90
6879;DHT22;3478;51.462;7.338;2023-07-29T09:52:39;21.50;99.90
6879;DHT22;3478;51.462;7.338;2023-07-29T09:57:41;21.80;99.90
6879;DHT22;3478;51.462;7.338;2023-07-29T10:02:44;22.40;99.90
6879;DHT22;3478;51.462;7.338;2023-07-29T10:07:47;22.00;99.90
6879;DHT22;3478;51.462;7.338;2023-07-29T10:12:50;21.90;99.90
6879;DHT22;3478;51.462;7.338;2023-07-29T10:17:53;21.90;99.90
6879;DHT22;3478;51.462;7.338;2023-07-29T10:22:56;21.60;99.90
6879;DHT22;3478;51.462;7.338;2023-07-29T10:28:05;21.40;99.90
6879;DHT22;3478;51.462;7.338;2023-07-29T10:33:08;21.40;99.90
6879;DHT22;3478;51.462;7.338;2023-07-29T10:38:11;22.20;99.90
6879;DHT22;3478;51.462;7.338;2023-07-29T10:43:15;22.80;99.90
6879;DHT22;3478;51.462;7.338;2023-07-29T10:48:44;23.10;99.90
6879;DHT22;3478;51.462;7.338;2023-07-29T10:53:54;23.00;99.90
6879;DHT22;3478;51.462;7.338;2023-07-29T10:58:57;23.50;99.90
6879;DHT22;3478;51.462;7.338;2023-07-29T11:04:23;23.90;99.90
6879;DHT22;3478;51.462;7.338;2023-07-29T11:09:39;23.60;99.90
6879;DHT22;3478;51.462;7.338;2023-07-29T11:14:41;23.80;99.90
6879;DHT22;3478;51.462;7.338;2023-07-29T11:19:45;23.50;99.90
6879;DHT22;3478;51.462;7.338;2023-07-29T11:24:47;23.70;99.90
6879;DHT22;3478;51.462;7.338;2023-07-29T11:29:49;24.20;99.90
6879;DHT22;3478;51.462;7.338;2023-07-29T11:34:52;24.60;99.90
6879;DHT22;3478;51.462;7.338;2023-07-29T11:39:54;24.60;99.90
6879;DHT22;3478;51.462;7.338;2023-07-29T11:44:56;24.80;99.90
6879;DHT22;3478;51.462;7.338;2023-07-29T11:50:01;25.30;99.90
6879;DHT22;3478;51.462;7.338;2023-07-29T11:55:05;24.50;99.90
6879;DHT22;3478;51.462;7.338;2023-07-29T12:00:08;23.90;99.90
6879;DHT22;3478;51.462;7.338;2023-07-29T12:05:13;23.50;99.90
6879;DHT22;3478;51.462;7.338;2023-07-29T12:10:15;23.20;99.90
6879;DHT22;3478;51.462;7.338;2023-07-29T12:15:25;23.20;99.90
6879;DHT22;3478;51.462;7.338;2023-07-29T12:20:30;24.30;99.90
6879;DHT22;3478;51.462;7.338;2023-07-29T12:25:32;25.10;99.90
6879;DHT22;3478;51.462;7.338;2023-07-29T12:30:34;25.50;99.90
6879;DHT22;3478;51.462;7.338;2023-07-29T12:35:38;24.70;99.90
6879;DHT22;3478;51.462;7.338;2023-07-29T12:40:40;25.00;99.90
6879;DHT22;3478;51.462;7.338;2023-07-29T12:45:42;26.30;99.90
6879;DHT22;3478;51.462;7.338;2023-07-29T12:50:46;26.70;99.90
6879;DHT22;3478;51.462;7.338;2023-07-29T12:55:47;27.00;99.90
6879;DHT22;3478;51.462;7.338;2023-07-29T13:00:49;26.70;99.90
6879;DHT22;3478;51.462;7.338;2023-07-29T13:05:53;26.50;99.90
6879;DHT22;3478;51.462;7.338;2023-07-29T13:10:55;27.60;99.90
6879;DHT22;3478;51.462;7.338;2023-07-29T13:15:57;28.70;99.90
6879;DHT22;3478;51.462;7.338;2023-07-29T13:21:00;28.20;99.40
6879;DHT22;3478;51.462;7.338;2023-07-29T13:26:02;29.00;99.90
6879;DHT22;3478;51.462;7.338;2023-07-29T13:31:04;29.30;98.80
6879;DHT22;3478;51.462;7.338;2023-07-29T13:36:07;28.90;97.20
6879;DHT22;3478;51.462;7.338;2023-07-29T13:41:09;27.30;99.90
6879;DHT22;3478;51.462;7.338;2023-07-29T13:46:11;27.10;99.90
6879;DHT22;3478;51.462;7.338;2023-07-29T13:51:14;27.00;99.90
6879;DHT22;3478;51.462;7.338;2023-07-29T13:56:16;26.50;99.90
6879;DHT22;3478;51.462;7.338;2023-07-29T14:01:18;25.40;99.90
6879;DHT22;3478;51.462;7.338;2023-07-29T14:06:21;24.20;99.90
6879;DHT22;3478;51.462;7.338;2023-07-29T14:11:23;23.70;99.90
6879;DHT22;3478;51.462;7.338;2023-07-29T14:16:26;23.30;99.90
6879;DHT22;3478;51.462;7.338;2023-07-29T14:21:29;23.00;99.90
6879;DHT22;3478;51.462;7.338;2023-07-29T14:26:31;22.60;99.90
6879;DHT22;3478;51.462;7.338;2023-07-29T14:31:33;22.00;99.90
6879;DHT22;3478;51.462;7.338;2023-07-29T14:36:36;21.20;99.90
6879;DHT22;3478;51.462;7.338;2023-07-29T14:41:38;20.90;99.90
6879;DHT22;3478;51.462;7.338;2023-07-29T14:46:40;21.10;99.90
6879;DHT22;3478;51.462;7.338;2023-07-29T14:51:43;21.60;99.90
6879;DHT22;3478;51.462;7.338;2023-07-29T14:56:45;21.20;99.90
6879;DHT22;3478;51.462;7.338;2023-07-29T15:01:47;20.70;99.90
6879;DHT22;3478;51.462;7.338;2023-07-29T15:06:50;20.90;99.90
6879;DHT22;3478;51.462;7.338;2023-07-29T15:11:52;22.80;99.90
6879;DHT22;3478;51.462;7.338;2023-07-29T15:16:54;25.20;99.90
6879;DHT22;3478;51.462;7.338;2023-07-29T15:21:57;24.90;99.90
6879;DHT22;3478;51.462;7.338;2023-07-29T15:26:59;23.40;99.90
6879;DHT22;3478;51.462;7.338;2023-07-29T15:32:01;22.40;99.90
6879;DHT22;3478;51.462;7.338;2023-07-29T15:37:04;22.00;99.90
6879;DHT22;3478;51.462;7.338;2023-07-29T15:42:07;21.60;99.90
6879;DHT22;3478;51.462;7.338;2023-07-29T15:47:09;21.60;99.90
6879;DHT22;3478;51.462;7.338;2023-07-29T15:52:14;22.40;99.90
6879;DHT22;3478;51.462;7.338;2023-07-29T15:57:16;24.50;99.90
6879;DHT22;3478;51.462;7.338;2023-07-29T16:02:18;26.30;99.90
6879;DHT22;3478;51.462;7.338;2023-07-29T16:07:21;27.10;99.90
6879;DHT22;3478;51.462;7.338;2023-07-29T16:12:23;26.40;99.90
6879;DHT22;3478;51.462;7.338;2023-07-29T16:17:25;25.50;99.90
6879;DHT22;3478;51.462;7.338;2023-07-29T16:22:28;25.20;99.90
6879;DHT22;3478;51.462;7.338;2023-07-29T16:27:30;26.40;99.90
6879;DHT22;3478;51.462;7.338;2023-07-29T16:32:33;27.00;99.90
6879;DHT22;3478;51.462;7.338;2023-07-29T16:37:36;27.20;99.90
6879;DHT22;3478;51.462;7.338;2023-07-29T16:42:38;27.80;99.90
6879;DHT22;3478;51.462;7.338;2023-07-29T16:47:40;27.70;99.90
6879;DHT22;3478;51.462;7.338;2023-07-29T16:52:44;27.20;99.90
6879;DHT22;3478;51.462;7.338;2023-07-29T16:57:46;27.30;99.90
6879;DHT22;3478;51.462;7.338;2023-07-29T17:02:48;27.80;99.90
6879;DHT22;3478;51.462;7.338;2023-07-29T17:07:51;27.10;99.90
6879;DHT22;3478;51.462;7.338;2023-07-29T17:12:53;25.40;99.90
6879;DHT22;3478;51.462;7.338;2023-07-29T17:17:54;24.30;99.90
6879;DHT22;3478;51.462;7.338;2023-07-29T17:22:59;23.70;99.90
6879;DHT22;3478;51.462;7.338;2023-07-29T17:28:01;23.10;99.90
6879;DHT22;3478;51.462;7.338;2023-07-29T17:33:04;22.80;99.90
6879;DHT22;3478;51.462;7.338;2023-07-29T17:38:07;22.60;99.90
6879;DHT22;3478;51.462;7.338;2023-07-29T17:43:10;22.40;99.90
6879;DHT22;3478;51.462;7.338;2023-07-29T17:48:12;22.20;99.90
6879;DHT22;3478;51.462;7.338;2023-07-29T17:53:15;22.10;99.90
6879;DHT22;3478;51.462;7.338;2023-07-29T17:58:17;21.90;99.90
6879;DHT22;3478;51.462;7.338;2023-07-29T18:03:18;21.60;99.90
6879;DHT22;3478;51.462;7.338;2023-07-29T18:08:22;21.30;99.90
6879;DHT22;3478;51.462;7.338;2023-07-29T18:13:24;21.00;99.90
6879;DHT22;3478;51.462;7.338;2023-07-29T18:18:26;20.80;99.90
6879;DHT22;3478;51.462;7.338;2023-07-29T18:23:30;20.70;99.90
6879;DHT22;3478;51.462;7.338;2023-07-29T18:28:32;20.50;99.90
6879;DHT22;3478;51.462;7.338;2023-07-29T18:33:34;20.40;99.90
6879;DHT22;3478;51.462;7.338;2023-07-29T18:38:37;20.40;99.90
6879;DHT22;3478;51.462;7.338;2023-07-29T18:43:39;20.10;99.90
6879;DHT22;3478;51.462;7.338;2023-07-29T18:48:41;20.00;99.90
6879;DHT22;3478;51.462;7.338;2023-07-29T18:53:44;19.90;99.90
6879;DHT22;3478;51.462;7.338;2023-07-29T18:58:46;19.90;99.90
6879;DHT22;3478;51.462;7.338;2023-07-29T19:03:48;19.90;99.90
6879;DHT22;3478;51.462;7.338;2023-07-29T19:08:51;19.80;99.90
6879;DHT22;3478;51.462;7.338;2023-07-29T19:13:53;19.70;99.90
6879;DHT22;3478;51.462;7.338;2023-07-29T19:18:55;19.50;99.90
6879;DHT22;3478;51.462;7.338;2023-07-29T19:23:59;19.30;99.90
6879;DHT22;3478;51.462;7.338;2023-07-29T19:29:01;19.20;99.90
6879;DHT22;3478;51.462;7.338;2023-07-29T19:34:03;19.00;99.90
6879;DHT22;3478;51.462;7.338;2023-07-29T19:39:06;18.90;99.90
6879;DHT22;3478;51.462;7.338;2023-07-29T19:44:08;18.80;99.90
6879;DHT22;3478;51.462;7.338;2023-07-29T19:49:10;18.80;99.90
6879;DHT22;3478;51.462;7.338;2023-07-29T19:54:13;18.80;99.90
6879;DHT22;3478;51.462;7.338;2023-07-29T19:59:15;18.80;99.90
6879;DHT22;3478;51.462;7.338;2023-07-29T20:04:16;18.70;99.90
6879;DHT22;3478;51.462;7.338;2023-07-29T20:09:20;18.60;99.90
6879;DHT22;3478;51.462;7.338;2023-07-29T20:14:23;18.60;99.90
6879;DHT22;3478;51.462;7.338;2023-07-29T20:19:25;18.60;99.90
6879;DHT22;3478;51.462;7.338;2023-07-29T20:24:28;18.60;99.90
6879;DHT22;3478;51.462;7.338;2023-07-29T20:29:30;18.60;99.90
6879;DHT22;3478;51.462;7.338;2023-07-29T20:34:32;18.60;99.90
6879;DHT22;3478;51.462;7.338;2023-07-29T20:39:35;18.70;99.90
6879;DHT22;3478;51.462;7.338;2023-07-29T20:44:37;18.70;99.90
6879;DHT22;3478;51.462;7.338;2023-07-29T20:49:43;18.70;99.90
6879;DHT22;3478;51.462;7.338;2023-07-29T20:54:46;18.70;99.90
6879;DHT22;3478;51.462;7.338;2023-07-29T20:59:48;18.70;99.90
6879;DHT22;3478;51.462;7.338;2023-07-29T21:04:50;18.70;99.90
6879;DHT22;3478;51.462;7.338;2023-07-29T21:09:53;18.70;99.90
6879;DHT22;3478;51.462;7.338;2023-07-29T21:14:55;18.60;99.90
6879;DHT22;3478;51.462;7.338;2023-07-29T21:19:57;18.70;99.90
6879;DHT22;3478;51.462;7.338;2023-07-29T21:25:02;18.70;99.90
6879;DHT22;3478;51.462;7.338;2023-07-29T21:30:05;18.60;99.90
6879;DHT22;3478;51.462;7.338;2023-07-29T21:35:07;18.60;99.90
6879;DHT22;3478;51.462;7.338;2023-07-29T21:40:11;18.60;99.90
6879;DHT22;3478;51.462;7.338;2023-07-29T21:45:15;18.60;99.90
6879;DHT22;3478;51.462;7.338;2023-07-29T21:50:17;18.60;99.90
6879;DHT22;3478;51.462;7.338;2023-07-29T21:55:20;18.50;99.90
6879;DHT22;3478;51.462;7.338;2023-07-29T22:00:22;18.40;99.90
6879;DHT22;3478;51.462;7.338;2023-07-29T22:05:24;18.40;99.90
6879;DHT22;3478;51.462;7.338;2023-07-29T22:10:27;18.50;99.90
6879;DHT22;3478;51.462;7.338;2023-07-29T22:15:29;18.40;99.90
6879;DHT22;3478;51.462;7.338;2023-07-29T22:20:31;18.40;99.90
6879;DHT22;3478;51.462;7.338;2023-07-29T22:25:34;18.20;99.90
6879;DHT22;3478;51.462;7.338;2023-07-29T22:30:36;18.20;99.90
6879;DHT22;3478;51.462;7.338;2023-07-29T22:35:38;18.20;99.90
6879;DHT22;3478;51.462;7.338;2023-07-29T22:40:41;18.10;99.90
6879;DHT22;3478;51.462;7.338;2023-07-29T22:45:49;18.10;99.90
6879;DHT22;3478;51.462;7.338;2023-07-29T22:50:51;18.00;99.90
6879;DHT22;3478;51.462;7.338;2023-07-29T22:55:55;18.00;99.90
6879;DHT22;3478;51.462;7.338;2023-07-29T23:00:57;18.00;99.90
6879;DHT22;3478;51.462;7.338;2023-07-29T23:05:59;18.00;99.90
6879;DHT22;3478;51.462;7.338;2023-07-29T23:11:03;18.00;99.90
6879;DHT22;3478;51.462;7.338;2023-07-29T23:16:05;18.00;99.90
6879;DHT22;3478;51.462;7.338;2023-07-29T23:21:07;17.90;99.90
6879;DHT22;3478;51.462;7.338;2023-07-29T23:26:10;17.90;99.90
6879;DHT22;3478;51.462;7.338;2023-07-29T23:31:12;17.80;99.90
6879;DHT22;3478;51.462;7.338;2023-07-29T23:36:14;17.70;99.90
6879;DHT22;3478;51.462;7.338;2023-07-29T23:41:17;17.70;99.90
6879;DHT22;3478;51.462;7.338;2023-07-29T23:46:19;17.60;99.90
6879;DHT22;3478;51.462;7.338;2023-07-29T23:51:21;17.50;99.90
6879;DHT22;3478;51.462;7.338;2023-07-29T23:56:24;17.40;99.90
